메인 페이지
METAR-TAF:

METAR-TAF

공항 :

인디라 간디 국제공항

뉴델리, 인도

위도: 28-34N, 경도: 077-07E, 고도: 220m

현재 날씨관측

예보는 22분 전, 23:00시(UTC)에 발표되었습니다.
무풍
온도 19°C
습도 83%
기압 1009 hPa
시정: 3000m
고도 10000ft 상공 구름 보통
박무

METAR: VIDP 312300Z 00000KT 3000 BR SCT100 19/16 Q1009 NOSIG

시각: 04:52 (23:22 UTC)

예보

예보는 3 시간 22분 전, 20:00시(UTC)에 발표되었습니다.
예보 대상 시간: 31일 21시부터 01일 06시까지 (UTC)
북북동3kt
시정: 3000m
고도 4000ft 상공 구름 조금
고도 10000ft 상공 구름 보통
박무
전환 중
01일 00시부터 01일 02시까지 (UTC)
서남서4kt
시정: 1000m
박무
전환 중
01일 04시부터 01일 06시까지 (UTC)
5kt
시정: 2500m
고도 3500ft 상공 구름 보통
고도 9000ft 상공 구름 많음
연무, 약한비

TAF: VIDP 312000Z 3121/0106 03003KT 3000 BR FEW040 SCT100 BECMG 0100/0102 25004KT 1000 BR BECMG 0104/0106 09005KT 2500 HZ -RA SCT035 BKN090

4,000개 이상의 공항 관측 자료 및 예보 (METAR 및 TAF 보고).

지도상에서 검색 가능한 기상관측소가 노란 점과 빨간 점으로 표시되어 있습니다.

기상관측소 명을 보려면 표시 위로 마우스를 이동하세요.

날씨 관측과 예보를 보려면 클릭하세요.

지도 변경 : 확대하려면 엑스 표시가 있는 녹색 버튼, 축소하려면 빼기 표시가 있는 녹색 버튼, 다음 페이지의 지도를 보려면 녹색 화살표를 클릭하세요.


METAR-TAF: